createdAt,value
2019-03-16T00:02:34.070Z,12.30
2019-03-16T00:05:04.582Z,12.60
2019-03-16T00:07:35.111Z,14.77
2019-03-16T00:10:07.372Z,15.13
2019-03-16T00:12:41.914Z,13.97
2019-03-16T00:15:13.003Z,12.73
2019-03-16T00:17:43.593Z,16.17
2019-03-16T00:20:14.982Z,15.97
2019-03-16T00:22:45.860Z,14.60
2019-03-16T00:25:16.233Z,13.77
2019-03-16T00:27:47.141Z,17.07
2019-03-16T00:30:25.190Z,18.73
2019-03-16T00:32:55.616Z,23.80
2019-03-16T00:35:25.994Z,17.47
2019-03-16T00:37:56.623Z,22.03
2019-03-16T00:40:26.959Z,19.00
2019-03-16T00:42:58.440Z,25.00
2019-03-16T00:45:32.120Z,19.03
2019-03-16T00:48:05.592Z,19.37
2019-03-16T00:50:36.105Z,22.07
2019-03-16T00:53:06.453Z,24.20
2019-03-16T00:55:38.970Z,28.37
2019-03-16T00:58:09.376Z,21.57
2019-03-16T01:00:40.215Z,20.47
2019-03-16T01:03:10.560Z,21.93
2019-03-16T01:05:41.089Z,27.30
2019-03-16T01:08:11.622Z,30.77
2019-03-16T01:10:42.243Z,26.60
2019-03-16T01:13:12.628Z,26.87
2019-03-16T01:15:44.289Z,26.87
2019-03-16T01:18:14.739Z,25.60
2019-03-16T01:20:45.313Z,26.43
2019-03-16T01:23:17.599Z,25.57
2019-03-16T01:25:48.224Z,20.37
2019-03-16T01:28:18.928Z,21.17
2019-03-16T01:30:49.447Z,20.13
2019-03-16T01:33:19.888Z,21.33
2019-03-16T01:35:50.386Z,20.83
2019-03-16T01:38:20.783Z,20.87
2019-03-16T01:40:51.158Z,19.80
2019-03-16T01:43:22.093Z,15.07
2019-03-16T01:45:52.705Z,16.33
2019-03-16T01:48:23.125Z,17.63
2019-03-16T01:50:53.487Z,13.23
2019-03-16T01:53:24.035Z,13.63
2019-03-16T01:55:54.781Z,11.67
2019-03-16T01:58:25.240Z,11.73
2019-03-16T02:00:55.885Z,13.17
2019-03-16T02:03:27.191Z,10.10
2019-03-16T02:05:57.664Z,11.00
2019-03-16T02:08:36.385Z,9.10
2019-03-16T02:11:06.790Z,9.37
2019-03-16T02:13:37.153Z,9.47
2019-03-16T02:16:11.370Z,10.10
2019-03-16T02:18:39.642Z,7.10
2019-03-16T02:21:10.621Z,8.53
2019-03-16T02:23:41.076Z,9.87
2019-03-16T02:26:15.793Z,10.47
2019-03-16T02:28:49.956Z,11.13
2019-03-16T02:31:20.471Z,8.03
2019-03-16T02:33:53.378Z,8.30
2019-03-16T02:36:32.745Z,7.50
2019-03-16T02:39:03.209Z,7.83
2019-03-16T02:41:36.948Z,8.27
2019-03-16T02:44:11.130Z,7.80
2019-03-16T02:46:39.923Z,6.60
2019-03-16T02:49:10.427Z,7.40
2019-03-16T02:51:41.024Z,4.93
2019-03-16T02:54:11.871Z,6.13
2019-03-16T02:56:53.409Z,7.30
2019-03-16T02:59:24.174Z,8.63
2019-03-16T03:01:55.219Z,5.13
2019-03-16T03:04:27.978Z,6.63
2019-03-16T03:07:14.763Z,5.67
2019-03-16T03:09:51.618Z,6.00
2019-03-16T03:12:29.045Z,4.60
2019-03-16T03:14:59.641Z,4.77
2019-03-16T03:17:35.273Z,5.27
2019-03-16T03:20:18.975Z,5.30
2019-03-16T03:22:59.062Z,4.63
2019-03-16T03:25:34.143Z,4.93
2019-03-16T03:28:11.228Z,4.30
2019-03-16T03:30:47.261Z,4.97
2019-03-16T03:33:58.598Z,3.80
2019-03-16T03:36:25.848Z,4.20
2019-03-16T03:39:08.361Z,4.03
2019-03-16T03:41:51.053Z,3.57
2019-03-16T03:47:30.751Z,4.57
2019-03-16T03:50:18.077Z,3.70
2019-03-16T03:52:55.288Z,3.17
2019-03-16T03:55:32.606Z,3.27
2019-03-16T03:58:18.748Z,3.40
2019-03-16T04:00:57.022Z,3.33
2019-03-16T04:03:31.907Z,3.40
2019-03-16T04:06:23.526Z,3.97
2019-03-16T04:09:00.059Z,3.13
2019-03-16T04:11:33.844Z,2.70
2019-03-16T04:14:16.646Z,5.33
2019-03-16T04:16:49.231Z,4.17
2019-03-16T04:19:26.476Z,4.30
2019-03-16T04:22:03.199Z,4.27
2019-03-16T04:24:40.405Z,5.43
2019-03-16T04:27:18.291Z,4.67
2019-03-16T04:29:57.950Z,6.50
2019-03-16T04:32:38.620Z,7.67
2019-03-16T04:35:13.290Z,5.20
2019-03-16T04:37:45.343Z,6.20
2019-03-16T04:40:24.296Z,7.53
2019-03-16T04:43:00.048Z,6.60
2019-03-16T04:45:36.140Z,5.90
2019-03-16T04:48:08.634Z,10.20
2019-03-16T04:50:44.173Z,6.60
2019-03-16T04:53:26.485Z,9.07
2019-03-16T04:56:00.934Z,11.57
2019-03-16T04:58:48.570Z,6.30
2019-03-16T05:01:34.670Z,5.97
2019-03-16T05:04:15.913Z,5.03
2019-03-16T05:06:52.868Z,4.90
2019-03-16T05:09:31.191Z,4.23
2019-03-16T05:12:09.756Z,5.10
2019-03-16T05:14:43.083Z,3.73
2019-03-16T05:17:13.774Z,4.27
2019-03-16T05:19:46.868Z,6.60
2019-03-16T05:22:17.958Z,5.47
2019-03-16T05:24:52.208Z,6.57
2019-03-16T05:27:33.064Z,5.80
2019-03-16T05:30:12.273Z,5.90
2019-03-16T05:32:47.211Z,6.47
2019-03-16T05:35:21.947Z,4.80
2019-03-16T05:37:53.017Z,4.63
2019-03-16T05:40:35.014Z,4.30
2019-03-16T05:43:10.773Z,3.70
2019-03-16T05:45:48.796Z,4.53
2019-03-16T05:48:59.317Z,5.33
2019-03-16T05:55:53.176Z,5.53
2019-03-16T05:58:52.982Z,3.80
2019-03-16T06:02:31.914Z,5.20
2019-03-16T06:04:32.478Z,4.60
2019-03-16T06:07:13.731Z,3.07
2019-03-16T06:09:56.018Z,3.50
2019-03-16T06:12:36.777Z,3.97
2019-03-16T06:15:54.751Z,5.03
2019-03-16T06:21:41.227Z,3.33
2019-03-16T06:24:56.586Z,4.10
2019-03-16T06:31:15.492Z,3.87
2019-03-16T06:34:17.489Z,3.80
2019-03-16T06:37:02.399Z,4.70
2019-03-16T06:39:48.734Z,5.27
2019-03-16T06:42:37.581Z,4.87
2019-03-16T06:45:14.102Z,6.80
2019-03-16T06:48:07.676Z,4.43
2019-03-16T06:51:20.424Z,7.23
2019-03-16T06:54:13.288Z,3.77
2019-03-16T06:57:04.308Z,4.57
2019-03-16T07:03:10.133Z,3.30
2019-03-16T07:09:28.299Z,3.40
2019-03-16T07:12:45.605Z,5.10
2019-03-16T07:15:37.835Z,3.13
2019-03-16T07:18:58.792Z,3.17
2019-03-16T07:22:04.995Z,3.60
2019-03-16T07:28:08.337Z,2.87
2019-03-16T07:31:00.172Z,4.80
2019-03-16T07:34:09.051Z,3.43
2019-03-16T07:37:21.622Z,2.60
2019-03-16T07:46:28.396Z,2.73
2019-03-16T07:52:38.938Z,2.60
2019-03-16T07:55:09.947Z,2.40
2019-03-16T07:57:58.396Z,3.33
2019-03-16T08:00:48.966Z,4.67
2019-03-16T08:03:27.922Z,2.90
2019-03-16T08:06:01.212Z,2.30
2019-03-16T08:08:34.613Z,2.37
2019-03-16T08:11:36.923Z,2.10
2019-03-16T08:14:12.517Z,2.10
2019-03-16T08:19:30.765Z,3.10
2019-03-16T08:22:18.172Z,2.37
2019-03-16T08:24:55.554Z,2.00
2019-03-16T08:27:57.138Z,2.57
2019-03-16T08:31:01.767Z,2.30
2019-03-16T08:37:18.070Z,2.60
2019-03-16T08:48:48.720Z,2.43
2019-03-16T08:51:45.788Z,2.57
2019-03-16T09:00:51.704Z,2.20
2019-03-16T09:03:54.544Z,2.30
2019-03-16T09:06:58.812Z,2.33
2019-03-16T09:18:36.095Z,2.83
2019-03-16T09:24:31.486Z,3.90
2019-03-16T09:27:30.720Z,2.67
2019-03-16T09:44:05.379Z,2.77
2019-03-16T09:49:55.254Z,2.57
2019-03-16T09:55:58.999Z,2.67
2019-03-16T09:59:05.739Z,3.37
2019-03-16T10:02:32.674Z,8.53
2019-03-16T10:05:48.260Z,2.50
2019-03-16T10:08:38.913Z,2.27
2019-03-16T10:14:32.167Z,2.10
2019-03-16T10:17:15.424Z,2.27
2019-03-16T10:19:52.211Z,2.20
2019-03-16T10:26:03.805Z,2.00
2019-03-16T10:40:56.848Z,1.93
2019-03-16T10:47:31.363Z,1.90
2019-03-16T10:50:32.631Z,1.80
2019-03-16T10:53:22.918Z,2.13
2019-03-16T11:22:06.932Z,2.60
2019-03-16T11:32:26.188Z,1.70
2019-03-16T11:54:45.678Z,2.30
2019-03-16T11:57:26.105Z,1.87
2019-03-16T12:00:05.538Z,2.30
2019-03-16T12:02:57.137Z,1.83
2019-03-16T12:05:44.964Z,1.83
2019-03-16T12:08:18.503Z,3.40
2019-03-16T12:10:57.720Z,3.37
2019-03-16T12:13:37.230Z,1.73
2019-03-16T12:16:09.253Z,1.90
2019-03-16T12:18:53.392Z,1.80
2019-03-16T12:21:38.521Z,1.70
2019-03-16T12:24:24.020Z,1.97
2019-03-16T12:26:57.043Z,2.17
2019-03-16T12:29:38.929Z,1.80
2019-03-16T12:32:16.906Z,2.00
2019-03-16T12:34:59.232Z,2.33
2019-03-16T12:37:38.251Z,2.20
2019-03-16T12:40:54.867Z,2.33
2019-03-16T12:43:57.979Z,3.70
2019-03-16T12:46:42.962Z,5.33
2019-03-16T12:56:53.965Z,2.50
2019-03-16T12:59:46.737Z,2.30
2019-03-16T13:02:07.839Z,2.07
2019-03-16T13:04:44.208Z,2.33
2019-03-16T13:07:15.064Z,2.10
2019-03-16T13:09:52.006Z,3.00
2019-03-16T13:12:50.411Z,2.20
2019-03-16T13:15:21.283Z,2.80
2019-03-16T13:17:56.316Z,2.87
2019-03-16T13:20:27.672Z,6.40
2019-03-16T13:22:58.563Z,2.50
2019-03-16T13:25:44.658Z,3.03
2019-03-16T13:28:15.493Z,2.37
2019-03-16T13:30:53.749Z,2.40
2019-03-16T13:33:41.525Z,2.40
2019-03-16T13:36:15.247Z,3.17
2019-03-16T13:38:46.151Z,7.73
2019-03-16T13:41:16.962Z,1.93
2019-03-16T13:43:51.078Z,2.20
2019-03-16T13:46:35.099Z,2.30
2019-03-16T13:49:05.920Z,2.47
2019-03-16T13:51:40.451Z,2.67
2019-03-16T13:54:15.699Z,2.13
2019-03-16T13:57:14.244Z,2.43
2019-03-16T13:59:50.489Z,2.97
2019-03-16T14:02:24.797Z,3.00
2019-03-16T14:05:00.581Z,2.70
2019-03-16T14:07:31.344Z,3.13
2019-03-16T14:10:02.442Z,2.77
2019-03-16T14:12:47.362Z,2.97
2019-03-16T14:15:39.484Z,4.83
2019-03-16T14:18:35.219Z,3.07
2019-03-16T14:21:07.044Z,2.90
2019-03-16T14:23:38.798Z,2.53
2019-03-16T14:26:42.328Z,4.03
2019-03-16T14:29:04.738Z,1.90
2019-03-16T14:31:44.165Z,2.63
2019-03-16T14:34:14.903Z,2.00
2019-03-16T14:36:52.095Z,2.10
2019-03-16T14:39:34.770Z,2.10
2019-03-16T14:42:22.623Z,4.03
2019-03-16T14:44:57.633Z,2.37
2019-03-16T14:47:48.929Z,2.67
2019-03-16T14:50:21.135Z,2.40
2019-03-16T14:52:53.400Z,2.33
2019-03-16T14:55:24.777Z,2.10
2019-03-16T15:01:01.633Z,1.90
2019-03-16T15:03:54.280Z,2.00
2019-03-16T15:06:27.147Z,2.30
2019-03-16T15:09:01.809Z,4.13
2019-03-16T15:11:33.902Z,2.43
2019-03-16T15:14:04.862Z,2.20
2019-03-16T15:16:35.323Z,2.53
2019-03-16T15:19:05.810Z,2.57
2019-03-16T15:21:39.225Z,2.70
2019-03-16T15:24:09.726Z,2.90
2019-03-16T15:26:54.486Z,3.93
2019-03-16T15:29:25.201Z,3.97
2019-03-16T15:31:56.592Z,2.63
2019-03-16T15:34:33.837Z,2.50
2019-03-16T15:37:05.411Z,2.40
2019-03-16T15:39:46.426Z,5.57
2019-03-16T15:42:16.894Z,2.87
2019-03-16T15:44:48.869Z,3.07
2019-03-16T15:47:39.951Z,2.30
2019-03-16T15:50:10.731Z,2.30
2019-03-16T15:52:41.548Z,7.13
2019-03-16T15:55:12.659Z,2.67
2019-03-16T15:57:45.506Z,2.47
2019-03-16T16:00:16.021Z,3.63
2019-03-16T16:02:46.702Z,3.93
2019-03-16T16:05:17.151Z,1.80
2019-03-16T16:07:47.510Z,2.17
2019-03-16T16:10:17.935Z,2.10
2019-03-16T16:13:06.328Z,6.43
2019-03-16T16:15:36.818Z,2.77
2019-03-16T16:18:07.308Z,2.37
2019-03-16T16:20:37.736Z,2.07
2019-03-16T16:23:08.246Z,2.10
2019-03-16T16:25:40.290Z,2.97
2019-03-16T16:28:11.271Z,3.50
2019-03-16T16:30:42.089Z,2.13
2019-03-16T16:33:13.337Z,2.93
2019-03-16T16:35:44.308Z,2.40
2019-03-16T16:38:18.300Z,2.60
2019-03-16T16:40:48.825Z,3.37
2019-03-16T16:43:19.168Z,3.03
2019-03-16T16:45:49.586Z,3.23
2019-03-16T16:48:19.967Z,5.83
2019-03-16T16:50:50.548Z,16.13
2019-03-16T16:53:21.896Z,10.97
2019-03-16T16:55:52.281Z,4.93
2019-03-16T16:58:22.860Z,3.87
2019-03-16T17:00:53.280Z,3.17
2019-03-16T17:03:23.736Z,6.80
2019-03-16T17:05:54.282Z,4.73
2019-03-16T17:08:25.166Z,2.60
2019-03-16T17:10:59.868Z,3.77
2019-03-16T17:13:30.248Z,2.87
2019-03-16T17:16:01.812Z,3.60
2019-03-16T17:18:33.672Z,4.30
2019-03-16T17:21:04.395Z,3.27
2019-03-16T17:23:35.309Z,2.60
2019-03-16T17:27:08.651Z,2.37
2019-03-16T17:29:39.640Z,2.63
2019-03-16T17:32:10.412Z,2.90
2019-03-16T17:34:41.368Z,2.80
2019-03-16T17:37:12.282Z,3.00
2019-03-16T17:39:44.776Z,3.57
2019-03-16T17:42:15.668Z,3.17
2019-03-16T17:44:46.014Z,3.57
2019-03-16T17:47:16.773Z,4.77
2019-03-16T17:49:47.254Z,4.20
2019-03-16T17:52:18.267Z,7.13
2019-03-16T17:54:51.790Z,7.27
2019-03-16T17:57:34.099Z,3.83
2019-03-16T18:00:09.172Z,3.93
2019-03-16T18:02:50.531Z,11.80
2019-03-16T18:05:11.839Z,5.00
2019-03-16T18:07:42.187Z,5.73
2019-03-16T18:10:13.416Z,4.47
2019-03-16T18:12:43.914Z,3.60
2019-03-16T18:15:15.160Z,2.90
2019-03-16T18:17:45.725Z,6.43
2019-03-16T18:20:18.070Z,4.27
2019-03-16T18:22:48.635Z,5.70
2019-03-16T18:25:19.078Z,9.33
2019-03-16T18:27:52.911Z,6.27
2019-03-16T18:30:23.907Z,8.90
2019-03-16T18:32:55.563Z,8.37
2019-03-16T18:35:26.017Z,11.87
2019-03-16T18:37:56.492Z,8.40
2019-03-16T18:40:26.961Z,6.77
2019-03-16T18:42:57.685Z,5.97
2019-03-16T18:45:28.237Z,3.20
2019-03-16T18:47:58.727Z,2.30
2019-03-16T18:50:31.988Z,2.77
2019-03-16T18:53:03.056Z,3.20
2019-03-16T18:55:33.988Z,11.00
2019-03-16T18:58:06.373Z,9.93
2019-03-16T19:00:37.060Z,9.20
2019-03-16T19:03:07.706Z,9.93
2019-03-16T19:05:42.687Z,7.80
2019-03-16T19:08:13.299Z,5.30
2019-03-16T19:10:44.890Z,4.67
2019-03-16T19:13:15.291Z,5.90
2019-03-16T19:15:45.673Z,19.13
2019-03-16T19:18:16.035Z,8.43
2019-03-16T19:20:46.684Z,5.60
2019-03-16T19:23:17.133Z,6.37
2019-03-16T19:25:47.682Z,8.80
2019-03-16T19:28:18.646Z,6.00
2019-03-16T19:30:51.253Z,7.73
2019-03-16T19:33:21.767Z,12.13
2019-03-16T19:35:52.177Z,20.27
2019-03-16T19:38:22.868Z,12.63
2019-03-16T19:40:53.399Z,12.47
2019-03-16T19:43:24.971Z,12.60
2019-03-16T19:45:55.340Z,12.97
2019-03-16T19:48:25.725Z,12.77
2019-03-16T19:50:56.082Z,12.83
2019-03-16T19:53:26.510Z,20.30
2019-03-16T19:55:56.895Z,17.63
2019-03-16T19:58:30.272Z,15.03
2019-03-16T20:01:00.866Z,16.77
2019-03-16T20:03:39.249Z,17.43
2019-03-16T20:06:09.859Z,14.53
2019-03-16T20:08:40.212Z,14.23
2019-03-16T20:11:29.107Z,10.80
2019-03-16T20:13:59.559Z,12.27
2019-03-16T20:16:29.998Z,21.00
2019-03-16T20:19:00.685Z,15.13
2019-03-16T20:21:33.831Z,17.27
2019-03-16T20:24:04.362Z,15.60
2019-03-16T20:26:34.821Z,9.07
2019-03-16T20:29:08.039Z,12.13
2019-03-16T20:31:47.254Z,13.63
2019-03-16T20:34:16.383Z,12.93
2019-03-16T20:37:07.368Z,14.43
2019-03-16T20:39:37.857Z,13.40
2019-03-16T20:42:08.762Z,15.63
2019-03-16T20:44:43.756Z,17.73
2019-03-16T20:47:16.634Z,14.63
2019-03-16T20:49:48.929Z,13.00
2019-03-16T20:52:20.065Z,13.27
2019-03-16T20:55:53.162Z,16.60
2019-03-16T20:57:47.112Z,14.07
2019-03-16T21:00:18.039Z,17.63
2019-03-16T21:02:48.800Z,15.37
2019-03-16T21:05:19.800Z,14.00
2019-03-16T21:07:53.534Z,12.53
2019-03-16T21:10:24.593Z,14.97
2019-03-16T21:12:55.131Z,14.00
2019-03-16T21:15:27.377Z,16.67
2019-03-16T21:17:58.419Z,19.33
2019-03-16T21:20:32.445Z,21.37
2019-03-16T21:23:03.481Z,16.43
2019-03-16T21:25:34.595Z,19.33
2019-03-16T21:28:09.203Z,15.83
2019-03-16T21:30:41.201Z,19.60
2019-03-16T21:33:11.706Z,14.70
2019-03-16T21:35:44.248Z,15.37
2019-03-16T21:38:17.287Z,20.07
2019-03-16T21:40:47.700Z,17.63
2019-03-16T21:43:42.809Z,15.37
2019-03-16T21:46:18.207Z,13.97
2019-03-16T21:48:58.056Z,13.10
2019-03-16T21:51:29.787Z,22.60
2019-03-16T21:54:01.022Z,51.93
2019-03-16T21:56:35.042Z,21.70
2019-03-16T21:59:07.348Z,13.40
2019-03-16T22:01:45.339Z,14.70
2019-03-16T22:04:17.924Z,18.67
2019-03-16T22:06:54.961Z,15.53
2019-03-16T22:09:26.821Z,14.63
2019-03-16T22:12:00.374Z,18.47
2019-03-16T22:14:49.013Z,16.97
2019-03-16T22:17:22.547Z,18.97
2019-03-16T22:19:56.623Z,15.87
2019-03-16T22:24:15.743Z,15.80
2019-03-16T22:25:29.173Z,14.30
2019-03-16T22:28:00.333Z,18.57
2019-03-16T22:30:31.647Z,12.50
2019-03-16T22:33:02.854Z,10.40
2019-03-16T22:35:48.033Z,12.00
2019-03-16T22:38:18.670Z,13.00
2019-03-16T22:40:49.924Z,12.20
2019-03-16T22:43:20.425Z,13.00
2019-03-16T22:45:50.815Z,13.90
2019-03-16T22:48:21.468Z,10.47
2019-03-16T22:50:51.985Z,12.43
2019-03-16T22:53:22.654Z,10.10
2019-03-16T22:55:53.468Z,13.53
2019-03-16T22:58:24.167Z,12.93
2019-03-16T23:00:55.081Z,11.90
2019-03-16T23:03:25.687Z,11.57
2019-03-16T23:05:56.438Z,9.40
2019-03-16T23:08:28.626Z,10.50
2019-03-16T23:10:58.978Z,8.73
2019-03-16T23:13:29.821Z,10.10
2019-03-16T23:16:00.427Z,9.03
2019-03-16T23:18:31.910Z,11.47
2019-03-16T23:21:04.941Z,9.63
2019-03-16T23:23:42.804Z,11.43
2019-03-16T23:26:13.438Z,8.67
2019-03-16T23:28:44.024Z,14.30
2019-03-16T23:31:14.486Z,10.17
2019-03-16T23:33:44.911Z,6.90
2019-03-16T23:36:17.556Z,8.40
2019-03-16T23:38:48.272Z,8.73
2019-03-16T23:41:19.581Z,9.20
2019-03-16T23:43:54.819Z,8.97
2019-03-16T23:46:25.172Z,9.70
2019-03-16T23:48:55.861Z,7.67
2019-03-16T23:51:27.780Z,7.73
2019-03-16T23:53:58.137Z,8.37
2019-03-16T23:56:28.501Z,8.10
2019-03-16T23:58:58.951Z,8.87
